Airfield :
LOGIN :

Register | Disclaimer

   EN    FR    IT 

 










Legend :    VFR   Marginal VFR   IFR   Intensive IFR   Very Intensive IFR
Visi :
Ceiling :
>= 8 km
>= 3000ft
5 to 8 km
1000 to 3000 ft
1500m to 5 km
500 to 1000 ft
800 to 1500m
200 to 500 ft
< 800m
< 200 ft
Symbols :   Thunderstorms  Fog  Heavy snow  Heavy precipitations  Wind > 20 kt
SIGMETs :     Misc.  Thunderstorms  Icing  Turbulence  Mountain Waves  Volcanic Ashes






- Airport Elevation : 26 ft
- IATA code : BIA


LFKB - Bastia

CURRENT METAR :
  • 011400Z AUTO 36006KT 330V030 9999 FEW044 SCT054 13/04 Q1015 NOSIG

EXPIRED METARs :
  • 011330Z AUTO 36007KT 320V020 9999 FEW045 13/04 Q1015 NOSIG
  • 011300Z AUTO 36007KT 9999 FEW045 SCT052 13/03 Q1015 NOSIG
  • 011230Z AUTO 35007KT 310V010 9999 FEW044 SCT052 14/03 Q1015 NOSIG
  • 011200Z AUTO 35008KT 330V030 9999 FEW045 14/03 Q1016 NOSIG
  • 011130Z AUTO 01007KT 9999 FEW047 13/04 Q1016 NOSIG

TAF TAF LFKB
Valid from the 01 at 09:00 until the 02 at 09:00 UTC


010800Z 0109/0209 02010KT 9999 BKN040 TX13/0113Z TN07/0205Z
BECMG 0115/0118 24005KT
ATIS : +33 4 95 59 19 40



MET'MAP, your aeronautical weather chart ! - Copyright ORBIFLY December 2007 - Disclaimer

ORBIFLY MET'MAP TEAM :

Programming & Development : Alexandra Zaïnal
Original concept : Baudouin d'Aumeries
Technical & hardware support : Manuel Goepfert
Assistance : Marc-Olivier Méhu




SOURCES & CREDITS :

   NOAA